sensor_id;sensor_type;location;lat;lon;timestamp;temperature;humidity
4052;DHT22;2040;50.924;11.604;2023-02-19T00:01:24;8.10;99.90
4052;DHT22;2040;50.924;11.604;2023-02-19T00:03:55;8.10;99.90
4052;DHT22;2040;50.924;11.604;2023-02-19T00:06:22;8.10;99.90
4052;DHT22;2040;50.924;11.604;2023-02-19T00:08:48;8.10;99.90
4052;DHT22;2040;50.924;11.604;2023-02-19T00:11:17;8.00;99.90
4052;DHT22;2040;50.924;11.604;2023-02-19T00:13:45;8.00;99.90
4052;DHT22;2040;50.924;11.604;2023-02-19T00:16:17;7.90;99.90
4052;DHT22;2040;50.924;11.604;2023-02-19T00:18:43;7.90;99.90
4052;DHT22;2040;50.924;11.604;2023-02-19T00:21:09;7.90;99.90
4052;DHT22;2040;50.924;11.604;2023-02-19T00:23:35;7.90;99.90
4052;DHT22;2040;50.924;11.604;2023-02-19T00:26:06;7.90;99.90
4052;DHT22;2040;50.924;11.604;2023-02-19T00:28:32;7.80;99.90
4052;DHT22;2040;50.924;11.604;2023-02-19T00:31:09;7.80;99.90
4052;DHT22;2040;50.924;11.604;2023-02-19T00:33:36;7.80;99.90
4052;DHT22;2040;50.924;11.604;2023-02-19T00:36:03;7.90;99.90
4052;DHT22;2040;50.924;11.604;2023-02-19T00:38:30;7.90;99.90
4052;DHT22;2040;50.924;11.604;2023-02-19T00:40:58;7.90;99.90
4052;DHT22;2040;50.924;11.604;2023-02-19T00:43:25;7.90;99.90
4052;DHT22;2040;50.924;11.604;2023-02-19T00:45:50;7.90;99.90
4052;DHT22;2040;50.924;11.604;2023-02-19T00:48:16;8.00;99.90
4052;DHT22;2040;50.924;11.604;2023-02-19T00:50:42;8.00;99.90
4052;DHT22;2040;50.924;11.604;2023-02-19T00:53:07;8.00;99.90
4052;DHT22;2040;50.924;11.604;2023-02-19T00:55:33;8.00;99.90
4052;DHT22;2040;50.924;11.604;2023-02-19T00:57:58;8.00;99.90
4052;DHT22;2040;50.924;11.604;2023-02-19T01:00:24;8.00;99.90
4052;DHT22;2040;50.924;11.604;2023-02-19T01:02:49;8.00;99.90
4052;DHT22;2040;50.924;11.604;2023-02-19T01:05:15;8.00;99.90
4052;DHT22;2040;50.924;11.604;2023-02-19T01:07:40;8.00;99.90
4052;DHT22;2040;50.924;11.604;2023-02-19T01:10:06;7.90;99.90
4052;DHT22;2040;50.924;11.604;2023-02-19T01:12:31;7.90;99.90
4052;DHT22;2040;50.924;11.604;2023-02-19T01:15:00;7.90;99.90
4052;DHT22;2040;50.924;11.604;2023-02-19T01:17:25;7.90;99.90
4052;DHT22;2040;50.924;11.604;2023-02-19T01:19:51;7.90;99.90
4052;DHT22;2040;50.924;11.604;2023-02-19T01:22:17;7.90;99.90
4052;DHT22;2040;50.924;11.604;2023-02-19T01:24:42;7.90;99.90
4052;DHT22;2040;50.924;11.604;2023-02-19T01:27:08;7.90;99.90
4052;DHT22;2040;50.924;11.604;2023-02-19T01:29:33;7.90;99.90
4052;DHT22;2040;50.924;11.604;2023-02-19T01:31:59;7.90;99.90
4052;DHT22;2040;50.924;11.604;2023-02-19T01:34:24;7.90;99.90
4052;DHT22;2040;50.924;11.604;2023-02-19T01:36:51;7.90;99.90
4052;DHT22;2040;50.924;11.604;2023-02-19T01:39:16;7.90;99.90
4052;DHT22;2040;50.924;11.604;2023-02-19T01:41:42;7.90;99.90
4052;DHT22;2040;50.924;11.604;2023-02-19T01:46:41;7.90;99.90
4052;DHT22;2040;50.924;11.604;2023-02-19T01:49:07;7.90;99.90
4052;DHT22;2040;50.924;11.604;2023-02-19T01:51:38;7.90;99.90
4052;DHT22;2040;50.924;11.604;2023-02-19T01:54:07;7.90;99.90
4052;DHT22;2040;50.924;11.604;2023-02-19T01:56:36;7.90;99.90
4052;DHT22;2040;50.924;11.604;2023-02-19T01:59:03;7.90;99.90
4052;DHT22;2040;50.924;11.604;2023-02-19T02:01:30;7.90;99.90
4052;DHT22;2040;50.924;11.604;2023-02-19T02:03:56;7.90;99.90
4052;DHT22;2040;50.924;11.604;2023-02-19T02:06:25;8.00;99.90
4052;DHT22;2040;50.924;11.604;2023-02-19T02:08:55;8.00;99.90
4052;DHT22;2040;50.924;11.604;2023-02-19T02:11:50;8.00;99.90
4052;DHT22;2040;50.924;11.604;2023-02-19T02:14:18;7.90;99.90
4052;DHT22;2040;50.924;11.604;2023-02-19T02:22:36;8.00;99.90
4052;DHT22;2040;50.924;11.604;2023-02-19T02:28:20;8.00;99.90
4052;DHT22;2040;50.924;11.604;2023-02-19T02:30:53;8.00;99.90
4052;DHT22;2040;50.924;11.604;2023-02-19T02:33:27;8.00;99.90
4052;DHT22;2040;50.924;11.604;2023-02-19T02:36:02;8.10;99.90
4052;DHT22;2040;50.924;11.604;2023-02-19T02:38:32;8.10;99.90
4052;DHT22;2040;50.924;11.604;2023-02-19T02:40:59;8.10;99.90
4052;DHT22;2040;50.924;11.604;2023-02-19T02:43:26;8.10;99.90
4052;DHT22;2040;50.924;11.604;2023-02-19T02:45:51;8.10;99.90
4052;DHT22;2040;50.924;11.604;2023-02-19T02:48:47;8.10;99.90
4052;DHT22;2040;50.924;11.604;2023-02-19T02:51:37;8.20;99.90
4052;DHT22;2040;50.924;11.604;2023-02-19T02:54:13;8.20;99.90
4052;DHT22;2040;50.924;11.604;2023-02-19T02:56:59;8.20;99.90
4052;DHT22;2040;50.924;11.604;2023-02-19T02:59:29;8.10;99.90
4052;DHT22;2040;50.924;11.604;2023-02-19T03:02:06;8.10;99.90
4052;DHT22;2040;50.924;11.604;2023-02-19T03:07:49;8.10;99.90
4052;DHT22;2040;50.924;11.604;2023-02-19T03:10:21;8.10;99.90
4052;DHT22;2040;50.924;11.604;2023-02-19T03:12:50;8.10;99.90
4052;DHT22;2040;50.924;11.604;2023-02-19T03:16:01;8.10;99.90
4052;DHT22;2040;50.924;11.604;2023-02-19T03:18:50;8.10;99.90
4052;DHT22;2040;50.924;11.604;2023-02-19T03:21:37;8.20;99.90
4052;DHT22;2040;50.924;11.604;2023-02-19T03:24:06;8.20;99.90
4052;DHT22;2040;50.924;11.604;2023-02-19T03:26:53;8.30;99.90
4052;DHT22;2040;50.924;11.604;2023-02-19T03:29:24;8.30;99.90
4052;DHT22;2040;50.924;11.604;2023-02-19T03:31:56;8.40;99.90
4052;DHT22;2040;50.924;11.604;2023-02-19T03:34:27;8.40;99.90
4052;DHT22;2040;50.924;11.604;2023-02-19T03:37:05;8.30;99.90
4052;DHT22;2040;50.924;11.604;2023-02-19T03:39:32;8.40;99.90
4052;DHT22;2040;50.924;11.604;2023-02-19T03:42:24;8.40;99.90
4052;DHT22;2040;50.924;11.604;2023-02-19T03:44:59;8.40;99.90
4052;DHT22;2040;50.924;11.604;2023-02-19T03:47:29;8.50;99.90
4052;DHT22;2040;50.924;11.604;2023-02-19T03:50:34;8.50;99.90
4052;DHT22;2040;50.924;11.604;2023-02-19T03:53:18;8.40;99.90
4052;DHT22;2040;50.924;11.604;2023-02-19T03:56:03;8.50;99.90
4052;DHT22;2040;50.924;11.604;2023-02-19T03:58:31;8.60;99.90
4052;DHT22;2040;50.924;11.604;2023-02-19T04:01:24;8.60;99.90
4052;DHT22;2040;50.924;11.604;2023-02-19T04:04:03;8.50;99.90
4052;DHT22;2040;50.924;11.604;2023-02-19T04:06:33;8.50;99.90
4052;DHT22;2040;50.924;11.604;2023-02-19T04:09:02;8.50;99.90
4052;DHT22;2040;50.924;11.604;2023-02-19T04:11:30;8.50;99.90
4052;DHT22;2040;50.924;11.604;2023-02-19T04:14:17;8.60;99.90
4052;DHT22;2040;50.924;11.604;2023-02-19T04:16:53;8.60;99.90
4052;DHT22;2040;50.924;11.604;2023-02-19T04:19:23;8.60;99.90
4052;DHT22;2040;50.924;11.604;2023-02-19T04:21:52;8.60;99.90
4052;DHT22;2040;50.924;11.604;2023-02-19T04:24:26;8.60;99.90
4052;DHT22;2040;50.924;11.604;2023-02-19T04:26:53;8.70;99.90
4052;DHT22;2040;50.924;11.604;2023-02-19T04:29:19;8.70;99.90
4052;DHT22;2040;50.924;11.604;2023-02-19T04:31:44;8.80;99.90
4052;DHT22;2040;50.924;11.604;2023-02-19T04:34:10;8.80;99.90
4052;DHT22;2040;50.924;11.604;2023-02-19T04:36:35;8.80;99.90
4052;DHT22;2040;50.924;11.604;2023-02-19T04:39:01;8.90;99.90
4052;DHT22;2040;50.924;11.604;2023-02-19T04:41:27;8.90;99.90
4052;DHT22;2040;50.924;11.604;2023-02-19T04:43:52;8.90;99.90
4052;DHT22;2040;50.924;11.604;2023-02-19T04:46:18;8.90;99.90
4052;DHT22;2040;50.924;11.604;2023-02-19T04:48:43;8.90;99.90
4052;DHT22;2040;50.924;11.604;2023-02-19T04:51:09;9.00;99.90
4052;DHT22;2040;50.924;11.604;2023-02-19T04:53:35;9.00;99.90
4052;DHT22;2040;50.924;11.604;2023-02-19T04:56:09;9.00;99.90
4052;DHT22;2040;50.924;11.604;2023-02-19T04:58:35;9.00;99.90
4052;DHT22;2040;50.924;11.604;2023-02-19T05:01:01;9.10;99.90
4052;DHT22;2040;50.924;11.604;2023-02-19T05:03:26;8.90;99.90
4052;DHT22;2040;50.924;11.604;2023-02-19T05:05:52;8.80;99.90
4052;DHT22;2040;50.924;11.604;2023-02-19T05:08:17;8.90;99.90
4052;DHT22;2040;50.924;11.604;2023-02-19T05:10:43;8.90;99.90
4052;DHT22;2040;50.924;11.604;2023-02-19T05:13:08;8.80;99.90
4052;DHT22;2040;50.924;11.604;2023-02-19T05:15:34;8.80;99.90
4052;DHT22;2040;50.924;11.604;2023-02-19T05:17:59;8.80;99.90
4052;DHT22;2040;50.924;11.604;2023-02-19T05:20:25;8.70;99.90
4052;DHT22;2040;50.924;11.604;2023-02-19T05:22:50;8.60;99.90
4052;DHT22;2040;50.924;11.604;2023-02-19T05:25:16;8.60;99.90
4052;DHT22;2040;50.924;11.604;2023-02-19T05:27:42;8.50;99.90
4052;DHT22;2040;50.924;11.604;2023-02-19T05:30:08;8.50;99.90
4052;DHT22;2040;50.924;11.604;2023-02-19T05:32:34;8.40;99.90
4052;DHT22;2040;50.924;11.604;2023-02-19T05:35:00;8.40;99.90
4052;DHT22;2040;50.924;11.604;2023-02-19T05:37:25;8.30;99.90
4052;DHT22;2040;50.924;11.604;2023-02-19T05:39:51;8.30;99.90
4052;DHT22;2040;50.924;11.604;2023-02-19T05:42:16;8.30;99.90
4052;DHT22;2040;50.924;11.604;2023-02-19T05:44:42;8.30;99.90
4052;DHT22;2040;50.924;11.604;2023-02-19T05:47:07;8.30;99.90
4052;DHT22;2040;50.924;11.604;2023-02-19T05:49:36;8.30;99.90
4052;DHT22;2040;50.924;11.604;2023-02-19T05:52:01;8.20;99.90
4052;DHT22;2040;50.924;11.604;2023-02-19T05:54:28;8.10;99.90
4052;DHT22;2040;50.924;11.604;2023-02-19T05:56:53;8.00;99.90
4052;DHT22;2040;50.924;11.604;2023-02-19T05:59:22;8.00;99.90
4052;DHT22;2040;50.924;11.604;2023-02-19T06:01:49;7.80;99.90
4052;DHT22;2040;50.924;11.604;2023-02-19T06:04:15;7.80;99.90
4052;DHT22;2040;50.924;11.604;2023-02-19T06:06:43;7.70;99.90
4052;DHT22;2040;50.924;11.604;2023-02-19T06:09:09;7.70;99.90
4052;DHT22;2040;50.924;11.604;2023-02-19T06:11:35;7.60;99.90
4052;DHT22;2040;50.924;11.604;2023-02-19T06:14:01;7.60;99.90
4052;DHT22;2040;50.924;11.604;2023-02-19T06:16:27;7.60;99.90
4052;DHT22;2040;50.924;11.604;2023-02-19T06:18:52;7.50;99.90
4052;DHT22;2040;50.924;11.604;2023-02-19T06:21:18;7.50;99.90
4052;DHT22;2040;50.924;11.604;2023-02-19T06:23:44;7.50;99.90
4052;DHT22;2040;50.924;11.604;2023-02-19T06:26:15;7.40;99.90
4052;DHT22;2040;50.924;11.604;2023-02-19T06:28:46;7.40;99.90
4052;DHT22;2040;50.924;11.604;2023-02-19T06:31:12;7.40;99.90
4052;DHT22;2040;50.924;11.604;2023-02-19T06:33:38;7.40;99.90
4052;DHT22;2040;50.924;11.604;2023-02-19T06:36:11;7.50;99.90
4052;DHT22;2040;50.924;11.604;2023-02-19T06:38:37;7.50;99.90
4052;DHT22;2040;50.924;11.604;2023-02-19T06:41:04;7.50;99.90
4052;DHT22;2040;50.924;11.604;2023-02-19T06:43:31;7.50;99.90
4052;DHT22;2040;50.924;11.604;2023-02-19T06:45:58;7.50;99.90
4052;DHT22;2040;50.924;11.604;2023-02-19T06:48:27;7.50;99.90
4052;DHT22;2040;50.924;11.604;2023-02-19T06:50:54;7.50;99.90
4052;DHT22;2040;50.924;11.604;2023-02-19T06:53:19;7.50;99.90
4052;DHT22;2040;50.924;11.604;2023-02-19T06:55:58;7.60;99.90
4052;DHT22;2040;50.924;11.604;2023-02-19T06:58:24;7.60;99.90
4052;DHT22;2040;50.924;11.604;2023-02-19T07:00:50;7.60;99.90
4052;DHT22;2040;50.924;11.604;2023-02-19T07:03:15;7.50;99.90
4052;DHT22;2040;50.924;11.604;2023-02-19T07:05:41;7.50;99.90
4052;DHT22;2040;50.924;11.604;2023-02-19T07:08:08;7.50;99.90
4052;DHT22;2040;50.924;11.604;2023-02-19T07:10:33;7.50;99.90
4052;DHT22;2040;50.924;11.604;2023-02-19T07:12:59;7.60;99.90
4052;DHT22;2040;50.924;11.604;2023-02-19T07:15:25;7.60;99.90
4052;DHT22;2040;50.924;11.604;2023-02-19T07:17:50;7.60;99.90
4052;DHT22;2040;50.924;11.604;2023-02-19T07:20:16;7.60;99.90
4052;DHT22;2040;50.924;11.604;2023-02-19T07:22:41;7.60;99.90
4052;DHT22;2040;50.924;11.604;2023-02-19T07:25:07;7.70;99.90
4052;DHT22;2040;50.924;11.604;2023-02-19T07:27:32;7.80;99.90
4052;DHT22;2040;50.924;11.604;2023-02-19T07:29:58;7.80;99.90
4052;DHT22;2040;50.924;11.604;2023-02-19T07:32:24;7.80;99.90
4052;DHT22;2040;50.924;11.604;2023-02-19T07:34:49;7.80;99.90
4052;DHT22;2040;50.924;11.604;2023-02-19T07:37:15;7.70;99.90
4052;DHT22;2040;50.924;11.604;2023-02-19T07:39:40;7.70;99.90
4052;DHT22;2040;50.924;11.604;2023-02-19T07:42:06;7.70;99.90
4052;DHT22;2040;50.924;11.604;2023-02-19T07:44:32;7.80;99.90
4052;DHT22;2040;50.924;11.604;2023-02-19T07:46:57;7.80;99.90
4052;DHT22;2040;50.924;11.604;2023-02-19T07:49:23;7.80;99.90
4052;DHT22;2040;50.924;11.604;2023-02-19T07:51:48;7.80;99.90
4052;DHT22;2040;50.924;11.604;2023-02-19T07:54:14;7.80;99.90
4052;DHT22;2040;50.924;11.604;2023-02-19T07:56:40;7.80;99.90
4052;DHT22;2040;50.924;11.604;2023-02-19T07:59:05;7.80;99.90
4052;DHT22;2040;50.924;11.604;2023-02-19T08:01:31;7.80;99.90
4052;DHT22;2040;50.924;11.604;2023-02-19T08:04:15;7.80;99.90
4052;DHT22;2040;50.924;11.604;2023-02-19T08:06:41;7.70;99.90
4052;DHT22;2040;50.924;11.604;2023-02-19T08:09:07;7.80;99.90
4052;DHT22;2040;50.924;11.604;2023-02-19T08:11:33;7.90;99.90
4052;DHT22;2040;50.924;11.604;2023-02-19T08:14:17;8.00;99.90
4052;DHT22;2040;50.924;11.604;2023-02-19T08:16:50;8.00;99.90
4052;DHT22;2040;50.924;11.604;2023-02-19T08:19:16;8.10;99.90
4052;DHT22;2040;50.924;11.604;2023-02-19T08:21:41;8.10;99.90
4052;DHT22;2040;50.924;11.604;2023-02-19T08:24:07;8.20;99.90
4052;DHT22;2040;50.924;11.604;2023-02-19T08:26:34;8.30;99.90
4052;DHT22;2040;50.924;11.604;2023-02-19T08:28:59;8.30;99.90
4052;DHT22;2040;50.924;11.604;2023-02-19T08:31:25;8.30;99.90
4052;DHT22;2040;50.924;11.604;2023-02-19T08:33:51;8.40;99.90
4052;DHT22;2040;50.924;11.604;2023-02-19T08:36:17;8.40;99.90
4052;DHT22;2040;50.924;11.604;2023-02-19T08:38:42;8.50;99.90
4052;DHT22;2040;50.924;11.604;2023-02-19T08:41:11;8.50;99.90
4052;DHT22;2040;50.924;11.604;2023-02-19T08:43:37;8.60;99.90
4052;DHT22;2040;50.924;11.604;2023-02-19T08:46:03;8.60;99.90
4052;DHT22;2040;50.924;11.604;2023-02-19T08:48:29;8.60;99.90
4052;DHT22;2040;50.924;11.604;2023-02-19T08:51:03;8.60;99.90
4052;DHT22;2040;50.924;11.604;2023-02-19T08:53:30;8.60;99.90
4052;DHT22;2040;50.924;11.604;2023-02-19T08:55:56;8.60;99.90
4052;DHT22;2040;50.924;11.604;2023-02-19T08:58:22;8.70;99.90
4052;DHT22;2040;50.924;11.604;2023-02-19T09:00:51;8.70;99.90
4052;DHT22;2040;50.924;11.604;2023-02-19T09:03:16;8.20;99.90
4052;DHT22;2040;50.924;11.604;2023-02-19T09:05:42;7.80;99.90
4052;DHT22;2040;50.924;11.604;2023-02-19T09:08:08;7.50;99.90
4052;DHT22;2040;50.924;11.604;2023-02-19T09:10:33;7.10;99.90
4052;DHT22;2040;50.924;11.604;2023-02-19T09:12:59;6.70;99.90
4052;DHT22;2040;50.924;11.604;2023-02-19T09:15:25;6.40;99.90
4052;DHT22;2040;50.924;11.604;2023-02-19T09:17:53;6.20;99.90
4052;DHT22;2040;50.924;11.604;2023-02-19T09:20:18;6.00;99.90
4052;DHT22;2040;50.924;11.604;2023-02-19T09:22:44;5.80;99.90
4052;DHT22;2040;50.924;11.604;2023-02-19T09:25:10;5.70;99.90
4052;DHT22;2040;50.924;11.604;2023-02-19T09:27:35;5.60;99.90
4052;DHT22;2040;50.924;11.604;2023-02-19T09:30:01;5.40;99.90
4052;DHT22;2040;50.924;11.604;2023-02-19T09:32:29;5.40;99.90
4052;DHT22;2040;50.924;11.604;2023-02-19T09:34:55;5.40;99.90
4052;DHT22;2040;50.924;11.604;2023-02-19T09:37:27;5.30;99.90
4052;DHT22;2040;50.924;11.604;2023-02-19T09:39:53;5.20;99.90
4052;DHT22;2040;50.924;11.604;2023-02-19T09:42:24;5.40;99.90
4052;DHT22;2040;50.924;11.604;2023-02-19T09:44:53;5.40;99.90
4052;DHT22;2040;50.924;11.604;2023-02-19T09:47:21;5.30;99.90
4052;DHT22;2040;50.924;11.604;2023-02-19T09:49:49;5.10;99.90
4052;DHT22;2040;50.924;11.604;2023-02-19T09:52:35;5.20;99.90
4052;DHT22;2040;50.924;11.604;2023-02-19T09:57:37;5.20;99.90
4052;DHT22;2040;50.924;11.604;2023-02-19T10:02:36;5.30;99.90
4052;DHT22;2040;50.924;11.604;2023-02-19T10:05:05;5.30;99.90
4052;DHT22;2040;50.924;11.604;2023-02-19T10:07:47;5.30;99.90
4052;DHT22;2040;50.924;11.604;2023-02-19T10:12:45;5.10;99.90
4052;DHT22;2040;50.924;11.604;2023-02-19T10:15:16;5.10;99.90
4052;DHT22;2040;50.924;11.604;2023-02-19T10:17:42;5.10;99.90
4052;DHT22;2040;50.924;11.604;2023-02-19T10:20:18;5.10;99.90
4052;DHT22;2040;50.924;11.604;2023-02-19T10:22:46;5.00;99.90
4052;DHT22;2040;50.924;11.604;2023-02-19T10:25:16;5.20;99.90
4052;DHT22;2040;50.924;11.604;2023-02-19T10:27:42;5.00;99.90
4052;DHT22;2040;50.924;11.604;2023-02-19T10:30:18;5.00;99.90
4052;DHT22;2040;50.924;11.604;2023-02-19T10:32:59;5.00;99.90
4052;DHT22;2040;50.924;11.604;2023-02-19T10:35:25;5.10;99.90
4052;DHT22;2040;50.924;11.604;2023-02-19T10:37:51;4.90;99.90
4052;DHT22;2040;50.924;11.604;2023-02-19T10:40:19;4.90;99.90
4052;DHT22;2040;50.924;11.604;2023-02-19T10:42:47;5.00;99.90
4052;DHT22;2040;50.924;11.604;2023-02-19T10:45:18;5.00;99.90
4052;DHT22;2040;50.924;11.604;2023-02-19T10:47:46;4.90;99.90
4052;DHT22;2040;50.924;11.604;2023-02-19T10:50:30;4.90;99.90
4052;DHT22;2040;50.924;11.604;2023-02-19T10:52:58;4.90;99.90
4052;DHT22;2040;50.924;11.604;2023-02-19T10:55:31;4.80;99.90
4052;DHT22;2040;50.924;11.604;2023-02-19T10:58:21;4.80;99.90
4052;DHT22;2040;50.924;11.604;2023-02-19T11:01:23;4.80;99.90
4052;DHT22;2040;50.924;11.604;2023-02-19T11:04:10;4.90;99.90
4052;DHT22;2040;50.924;11.604;2023-02-19T11:06:38;4.90;99.90
4052;DHT22;2040;50.924;11.604;2023-02-19T11:09:04;4.90;99.90
4052;DHT22;2040;50.924;11.604;2023-02-19T11:11:37;5.00;99.90
4052;DHT22;2040;50.924;11.604;2023-02-19T11:14:17;5.00;99.90
4052;DHT22;2040;50.924;11.604;2023-02-19T11:16:47;5.00;99.90
4052;DHT22;2040;50.924;11.604;2023-02-19T11:19:37;5.10;99.90
4052;DHT22;2040;50.924;11.604;2023-02-19T11:22:39;5.20;99.90
4052;DHT22;2040;50.924;11.604;2023-02-19T11:27:34;5.40;99.90
4052;DHT22;2040;50.924;11.604;2023-02-19T11:32:52;5.40;99.90
4052;DHT22;2040;50.924;11.604;2023-02-19T11:35:20;5.40;99.90
4052;DHT22;2040;50.924;11.604;2023-02-19T11:37:55;5.50;99.90
4052;DHT22;2040;50.924;11.604;2023-02-19T11:51:36;5.60;99.90
4052;DHT22;2040;50.924;11.604;2023-02-19T11:54:32;5.70;99.90
4052;DHT22;2040;50.924;11.604;2023-02-19T11:57:35;5.80;99.90
4052;DHT22;2040;50.924;11.604;2023-02-19T12:00:17;5.90;99.90
4052;DHT22;2040;50.924;11.604;2023-02-19T12:11:25;5.80;99.90
4052;DHT22;2040;50.924;11.604;2023-02-19T12:22:54;6.00;99.90
4052;DHT22;2040;50.924;11.604;2023-02-19T12:28:17;5.80;99.90
4052;DHT22;2040;50.924;11.604;2023-02-19T12:33:32;5.70;
4052;DHT22;2040;50.924;11.604;2023-02-19T12:38:44;5.80;99.90
4052;DHT22;2040;50.924;11.604;2023-02-19T12:41:43;5.70;99.90
4052;DHT22;2040;50.924;11.604;2023-02-19T12:44:37;5.80;99.90
4052;DHT22;2040;50.924;11.604;2023-02-19T12:47:06;5.80;99.90
4052;DHT22;2040;50.924;11.604;2023-02-19T12:50:23;5.80;99.90
4052;DHT22;2040;50.924;11.604;2023-02-19T12:52:32;5.90;99.90
4052;DHT22;2040;50.924;11.604;2023-02-19T12:55:43;5.80;99.90
4052;DHT22;2040;50.924;11.604;2023-02-19T12:58:04;5.90;99.90
4052;DHT22;2040;50.924;11.604;2023-02-19T13:00:43;5.90;99.90
4052;DHT22;2040;50.924;11.604;2023-02-19T13:03:39;5.90;99.90
4052;DHT22;2040;50.924;11.604;2023-02-19T13:06:29;6.00;99.90
4052;DHT22;2040;50.924;11.604;2023-02-19T13:09:12;5.90;99.90
4052;DHT22;2040;50.924;11.604;2023-02-19T13:11:58;6.00;99.90
4052;DHT22;2040;50.924;11.604;2023-02-19T13:14:39;6.10;99.90
4052;DHT22;2040;50.924;11.604;2023-02-19T13:17:42;6.00;99.90
4052;DHT22;2040;50.924;11.604;2023-02-19T13:20:31;6.00;99.90
4052;DHT22;2040;50.924;11.604;2023-02-19T13:23:22;6.20;99.90
4052;DHT22;2040;50.924;11.604;2023-02-19T13:37:22;6.30;99.90
4052;DHT22;2040;50.924;11.604;2023-02-19T13:39:51;6.20;99.90
4052;DHT22;2040;50.924;11.604;2023-02-19T13:42:31;6.10;99.90
4052;DHT22;2040;50.924;11.604;2023-02-19T13:44:58;6.10;99.90
4052;DHT22;2040;50.924;11.604;2023-02-19T13:47:47;6.00;99.90
4052;DHT22;2040;50.924;11.604;2023-02-19T13:52:57;6.10;99.90
4052;DHT22;2040;50.924;11.604;2023-02-19T14:01:01;6.00;99.90
4052;DHT22;2040;50.924;11.604;2023-02-19T14:03:27;5.80;99.90
4052;DHT22;2040;50.924;11.604;2023-02-19T14:06:05;5.90;99.90
4052;DHT22;2040;50.924;11.604;2023-02-19T14:08:52;5.90;99.90
4052;DHT22;2040;50.924;11.604;2023-02-19T14:16:59;6.00;99.90
4052;DHT22;2040;50.924;11.604;2023-02-19T14:27:53;6.20;99.90
4052;DHT22;2040;50.924;11.604;2023-02-19T14:30:20;6.10;99.90
4052;DHT22;2040;50.924;11.604;2023-02-19T14:32:48;6.00;99.90
4052;DHT22;2040;50.924;11.604;2023-02-19T14:35:22;6.10;99.90
4052;DHT22;2040;50.924;11.604;2023-02-19T14:37:50;6.10;99.90
4052;DHT22;2040;50.924;11.604;2023-02-19T14:40:31;6.20;99.90
4052;DHT22;2040;50.924;11.604;2023-02-19T14:43:00;6.30;99.90
4052;DHT22;2040;50.924;11.604;2023-02-19T14:45:27;6.20;99.90
4052;DHT22;2040;50.924;11.604;2023-02-19T14:47:55;6.30;99.90
4052;DHT22;2040;50.924;11.604;2023-02-19T14:50:28;6.30;99.90
4052;DHT22;2040;50.924;11.604;2023-02-19T14:52:58;6.30;99.90
4052;DHT22;2040;50.924;11.604;2023-02-19T14:55:33;6.40;99.90
4052;DHT22;2040;50.924;11.604;2023-02-19T14:58:12;6.30;99.90
4052;DHT22;2040;50.924;11.604;2023-02-19T15:00:40;6.20;99.90
4052;DHT22;2040;50.924;11.604;2023-02-19T15:06:02;6.30;99.90
4052;DHT22;2040;50.924;11.604;2023-02-19T15:08:42;6.40;99.90
4052;DHT22;2040;50.924;11.604;2023-02-19T15:11:18;6.30;99.90
4052;DHT22;2040;50.924;11.604;2023-02-19T15:13:50;6.30;99.90
4052;DHT22;2040;50.924;11.604;2023-02-19T15:16:18;6.20;99.90
4052;DHT22;2040;50.924;11.604;2023-02-19T15:18:46;6.30;99.90
4052;DHT22;2040;50.924;11.604;2023-02-19T15:21:27;6.20;99.90
4052;DHT22;2040;50.924;11.604;2023-02-19T15:23:59;6.20;99.90
4052;DHT22;2040;50.924;11.604;2023-02-19T15:26:37;6.20;99.90
4052;DHT22;2040;50.924;11.604;2023-02-19T15:29:18;6.20;99.90
4052;DHT22;2040;50.924;11.604;2023-02-19T15:31:55;6.20;99.90
4052;DHT22;2040;50.924;11.604;2023-02-19T15:34:22;6.10;99.90
4052;DHT22;2040;50.924;11.604;2023-02-19T15:36:51;6.10;99.90
4052;DHT22;2040;50.924;11.604;2023-02-19T15:39:23;6.10;99.90
4052;DHT22;2040;50.924;11.604;2023-02-19T15:41:55;6.10;99.90
4052;DHT22;2040;50.924;11.604;2023-02-19T15:44:44;6.10;99.90
4052;DHT22;2040;50.924;11.604;2023-02-19T15:50:32;6.10;99.90
4052;DHT22;2040;50.924;11.604;2023-02-19T15:53:18;6.10;99.90
4052;DHT22;2040;50.924;11.604;2023-02-19T15:55:59;6.20;99.90
4052;DHT22;2040;50.924;11.604;2023-02-19T16:01:06;6.20;99.90
4052;DHT22;2040;50.924;11.604;2023-02-19T16:03:37;6.20;99.90
4052;DHT22;2040;50.924;11.604;2023-02-19T16:06:10;6.10;99.90
4052;DHT22;2040;50.924;11.604;2023-02-19T16:08:39;6.20;99.90
4052;DHT22;2040;50.924;11.604;2023-02-19T16:11:24;6.10;99.90
4052;DHT22;2040;50.924;11.604;2023-02-19T16:13:52;6.10;99.90
4052;DHT22;2040;50.924;11.604;2023-02-19T16:16:38;6.00;99.90
4052;DHT22;2040;50.924;11.604;2023-02-19T16:19:05;5.90;99.90
4052;DHT22;2040;50.924;11.604;2023-02-19T16:21:30;5.90;99.90
4052;DHT22;2040;50.924;11.604;2023-02-19T16:24:12;5.80;99.90
4052;DHT22;2040;50.924;11.604;2023-02-19T16:26:44;5.80;99.90
4052;DHT22;2040;50.924;11.604;2023-02-19T16:29:19;5.70;99.90
4052;DHT22;2040;50.924;11.604;2023-02-19T16:31:50;5.50;99.90
4052;DHT22;2040;50.924;11.604;2023-02-19T16:34:17;5.60;99.90
4052;DHT22;2040;50.924;11.604;2023-02-19T16:36:48;5.50;99.90
4052;DHT22;2040;50.924;11.604;2023-02-19T16:39:16;5.50;99.90
4052;DHT22;2040;50.924;11.604;2023-02-19T16:46:46;5.30;99.90
4052;DHT22;2040;50.924;11.604;2023-02-19T16:49:12;5.30;99.90
4052;DHT22;2040;50.924;11.604;2023-02-19T16:51:38;5.30;99.90
4052;DHT22;2040;50.924;11.604;2023-02-19T16:54:04;5.30;99.90
4052;DHT22;2040;50.924;11.604;2023-02-19T16:56:30;5.20;99.90
4052;DHT22;2040;50.924;11.604;2023-02-19T16:58:56;5.10;99.90
4052;DHT22;2040;50.924;11.604;2023-02-19T17:01:22;5.10;99.90
4052;DHT22;2040;50.924;11.604;2023-02-19T17:03:48;5.10;99.90
4052;DHT22;2040;50.924;11.604;2023-02-19T17:06:14;5.00;99.90
4052;DHT22;2040;50.924;11.604;2023-02-19T17:08:41;5.00;99.90
4052;DHT22;2040;50.924;11.604;2023-02-19T17:11:15;4.90;99.90
4052;DHT22;2040;50.924;11.604;2023-02-19T17:13:42;5.00;99.90
4052;DHT22;2040;50.924;11.604;2023-02-19T17:16:20;5.00;99.90
4052;DHT22;2040;50.924;11.604;2023-02-19T17:18:46;4.90;99.90
4052;DHT22;2040;50.924;11.604;2023-02-19T17:21:24;4.80;99.90
4052;DHT22;2040;50.924;11.604;2023-02-19T17:23:50;4.80;99.90
4052;DHT22;2040;50.924;11.604;2023-02-19T17:26:18;4.70;99.90
4052;DHT22;2040;50.924;11.604;2023-02-19T17:28:44;4.60;99.90
4052;DHT22;2040;50.924;11.604;2023-02-19T17:31:10;4.50;99.90
4052;DHT22;2040;50.924;11.604;2023-02-19T17:33:36;4.40;99.90
4052;DHT22;2040;50.924;11.604;2023-02-19T17:36:03;4.30;99.90
4052;DHT22;2040;50.924;11.604;2023-02-19T17:38:28;4.20;99.90
4052;DHT22;2040;50.924;11.604;2023-02-19T17:40:54;4.10;99.90
4052;DHT22;2040;50.924;11.604;2023-02-19T17:43:19;4.00;99.90
4052;DHT22;2040;50.924;11.604;2023-02-19T17:45:45;4.00;99.90
4052;DHT22;2040;50.924;11.604;2023-02-19T17:48:14;4.00;99.90
4052;DHT22;2040;50.924;11.604;2023-02-19T17:50:40;4.00;99.90
4052;DHT22;2040;50.924;11.604;2023-02-19T17:53:06;4.00;99.90
4052;DHT22;2040;50.924;11.604;2023-02-19T17:55:32;4.00;99.90
4052;DHT22;2040;50.924;11.604;2023-02-19T17:57:58;4.10;99.90
4052;DHT22;2040;50.924;11.604;2023-02-19T18:00:28;4.20;99.90
4052;DHT22;2040;50.924;11.604;2023-02-19T18:02:54;4.20;99.90
4052;DHT22;2040;50.924;11.604;2023-02-19T18:05:20;4.20;99.90
4052;DHT22;2040;50.924;11.604;2023-02-19T18:07:46;4.30;99.90
4052;DHT22;2040;50.924;11.604;2023-02-19T18:10:13;4.30;99.90
4052;DHT22;2040;50.924;11.604;2023-02-19T18:12:39;4.30;99.90
4052;DHT22;2040;50.924;11.604;2023-02-19T18:15:06;4.30;99.90
4052;DHT22;2040;50.924;11.604;2023-02-19T18:17:32;4.30;99.90